Lexington Weather

Lexington, Massachusetts, USA

44°F
9/20/2020 10:11pm 
  • Lexington Conditions: Clear
  • Temperature: 44.2°F / 6.8°CColder 2.0°F than last hour.
  • Dew Point: 38.1°FDecreased 0.4°Fsince last hour.
  • Relative Humidity: 79%Increased 5.0% since last hour.
  • Wind: Calm, 10-min avg: Calm, gust: None
  • Barometer: 30.52 in Steady
  • Visibility: 10 miles
  • Rain Today: 0.00 in
  •   
Southeast Middlesex County - Special Weather Statement - Special Weather Statement
 - SEE ALL NEARBY ALERTS -

Nearby Reports - Official Weather Stations - Current Conditions

Data from the National Weather Service

KBED - Bedford, MA


Distance from station: WNW 4mi, 6km

Updated Sun Sep 20, 2020 8:51pm EDT (NOT Current)

Clear

Clear

Wind from calm

Wind:

Calm

Temperature: 43°F (6°C)

Dew Point: 36°F (2°C)

Humidity: 76%

Barometer: 30.55 in (1034.5 hPa)

Clouds: Clear

Visibility: 10 miles (16 km)


2020/09/21 00:51 KBED 210051Z 00000KT 10SM CLR 06/02 A3055 RMK AO2 SLP360 T00610022

KBOS - Boston, MA


Distance from station: ESE 12mi, 20km

Updated Sun Sep 20, 2020 8:54pm EDT (NOT Current)

Clear

Clear

Wind from N

Wind:

N 6 mph, 9 km/h

Temperature: 52°F (11°C)

Dew Point: 36°F (2°C)

Humidity: 54%

Barometer: 30.57 in (1035.2 hPa)

Clouds: Clear

Visibility: 10 miles (16 km)


2020/09/21 00:54 KBOS 210054Z 01005KT 10SM CLR 11/02 A3057 RMK AO2 SLP349 T01060017

KOWD - Norwood, MA


Distance from station: SSE 18mi, 29km

Updated Sun Sep 20, 2020 8:53pm EDT (NOT Current)

Clear

Clear

Wind from calm

Wind:

Calm

Temperature: 41°F (5°C)

Dew Point: 34°F (1°C)

Humidity: 76%

Barometer: 30.56 in (1034.9 hPa)

Clouds: Clear

Visibility: 10 miles (16 km)


2020/09/21 00:53 KOWD 210053Z 00000KT 10SM CLR 05/01 A3056 RMK AO2 SLP348 T00500011

KBVY - Beverly, MA


Distance from station: ENE 19mi, 31km

Updated Sun Sep 20, 2020 8:53pm EDT (NOT Current)

Clear

Clear

Wind from calm

Wind:

Calm

Temperature: 43°F (6°C)

Dew Point: 37°F (3°C)

Humidity: 81%

Barometer: 30.56 in (1034.9 hPa)

Clouds: Clear

Visibility: 10 miles (16 km)


2020/09/21 00:53 KBVY 210053Z 00000KT 10SM CLR 06/03 A3056 RMK AO2 SLP343 T00560028

KLWM - Lawrence, MA


Distance from station: NNE 20mi, 32km

Updated Sun Sep 20, 2020 8:54pm EDT (NOT Current)

Clear

Clear

Wind from calm

Wind:

Calm

Temperature: 45°F (7°C)

Dew Point: 37°F (3°C)

Humidity: 76%

Barometer: 30.58 in (1035.6 hPa)

Clouds: Clear

Visibility: 10 miles (16 km)


2020/09/21 00:54 KLWM 210054Z 00000KT 10SM CLR 07/03 A3058 RMK AO2 SLP356 T00720033

KFIT - Fitchburg, MA


Distance from station: WNW 27mi, 44km

Updated Sun Sep 20, 2020 8:52pm EDT (NOT Current)

Clear

Clear

Wind from NW

Wind:

NW 3 mph, 6 km/h

Temperature: 45°F (7°C)

Dew Point: 34°F (1°C)

Humidity: 66%

Barometer: 30.57 in (1035.2 hPa)

Clouds: Clear

Visibility: 10 miles (16 km)


2020/09/21 00:52 KFIT 210052Z AUTO 32003KT 10SM CLR 07/01 A3057 RMK AO2 SLP355 T00670006

KASH - Nashua/Boire Fld, NH


Distance from station: NNW 28mi, 44km

Updated Sun Sep 20, 2020 8:56pm EDT (NOT Current)

Clear

Clear

Wind from NW

Wind:

NW 5 mph, 7 km/h

Temperature: 46°F (8°C)

Wind Chill: 44°F (7°C)

Dew Point: 37°F (3°C)

Humidity: 71%

Barometer: 30.57 in (1035.2 hPa)

Clouds: Clear

Visibility: 10 miles (16 km)


2020/09/21 00:56 KASH 210056Z 31004KT 10SM CLR 08/03 A3057 RMK AO2 SLP359 T00830028

KORH - Worcester, MA


Distance from station: WSW 34mi, 55km

Updated Sun Sep 20, 2020 8:54pm EDT (NOT Current)

Clear

Clear

Wind from ESE

Wind:

ESE 3 mph, 6 km/h

Temperature: 50°F (10°C)

Dew Point: 34°F (1°C)

Humidity: 54%

Barometer: 30.56 in (1034.9 hPa)

Clouds: Clear

Visibility: 10 miles (16 km)


2020/09/21 00:54 KORH 210054Z 12003KT 10SM CLR 10/01 A3056 RMK AO2 SLP354 T01000006

KMHT - Manchester, NH


Distance from station: NNW 35mi, 57km

Updated Sun Sep 20, 2020 8:53pm EDT (NOT Current)

Clear

Clear

Wind from N

Wind:

N 3 mph, 6 km/h

Temperature: 52°F (11°C)

Dew Point: 36°F (2°C)

Humidity: 54%

Barometer: 30.55 in (1034.5 hPa)

Clouds: Clear

Visibility: 10 miles (16 km)


2020/09/21 00:53 KMHT 210053Z 36003KT 10SM CLR 11/02 A3055 RMK AO2 SLP361 T01060022

KGHG - Marshfield, MA


Distance from station: SE 38mi, 60km

Updated Wed Dec 31, 1969 7:00pm EST (NOT Current)


KSFZ - Pawtucket, RI


Distance from station: SSW 39mi, 62km

Updated Sun Sep 20, 2020 8:56pm EDT (NOT Current)

Clear

Clear

Wind from calm

Wind:

Calm

Temperature: 39°F (4°C)

Dew Point: 36°F (2°C)

Humidity: 87%

Barometer: 30.56 in (1034.9 hPa)

Clouds: Clear

Visibility: 10 miles (16 km)


2020/09/21 00:56 KSFZ 210056Z AUTO 00000KT 10SM CLR 04/02 A3056 RMK AO2 SLP296 T00440017

KTAN - Taunton, MA


Distance from station: SSE 40mi, 65km

Updated Sun Sep 20, 2020 8:52pm EDT (NOT Current)

Clear

Clear

Wind from calm

Wind:

Calm

Temperature: 37°F (3°C)

Dew Point: 32°F (0°C)

Humidity: 81%

Barometer: 30.55 in (1034.5 hPa)

Clouds: Clear

Visibility: 10 miles (16 km)


2020/09/21 00:52 KTAN 210052Z AUTO 00000KT 10SM CLR 03/00 A3055 RMK AO2 SLP344 T00280000

KPYM - Plymouth, MA


Distance from station: SE 44mi, 72km

Updated Sun Sep 20, 2020 8:52pm EDT (NOT Current)

Clear

Clear

Wind from NNE

Wind:

NNE 8 mph, 13 km/h

Temperature: 54°F (12°C)

Dew Point: 30°F (-1°C)

Humidity: 41%

Barometer: 30.54 in (1034.2 hPa)

Clouds: Clear

Visibility: 10 miles (16 km)


2020/09/21 00:52 KPYM 210052Z AUTO 03007KT 10SM CLR 12/M01 A3054 RMK AO2 SLP342 T01171006

KAFN - Jaffrey, NH


Distance from station: WNW 46mi, 74km

Updated Sun Sep 20, 2020 8:52pm EDT (NOT Current)

Clear

Clear

Wind from calm

Wind:

Calm

Temperature: 39°F (4°C)

Dew Point: 32°F (0°C)

Humidity: 75%

Barometer: 30.56 in (1034.9 hPa)

Clouds: Clear

Visibility: 10 miles (16 km)


2020/09/21 00:52 KAFN 210052Z AUTO 00000KT 10SM CLR 04/00 A3056 RMK AO2 SLP362 T00390000

KPSM - Portsmouth/Pease, NH


Distance from station: NNE 48mi, 78km

Updated Sun Sep 20, 2020 8:56pm EDT (NOT Current)

Clear

Clear

Wind from calm

Wind:

Calm

Temperature: 46°F (8°C)

Dew Point: 39°F (4°C)

Humidity: 76%

Barometer: 30.55 in (1034.5 hPa)

Clouds: Clear

Visibility: 10 miles (16 km)


2020/09/21 00:56 KPSM 210056Z 00000KT 10SM CLR 08/04 A3055 RMK AO2A SLP348 T00800042

KPVD - Providence/Green, RI


Distance from station: S 51mi, 82km

Updated Sun Sep 20, 2020 8:51pm EDT (NOT Current)

Clear

Clear

Wind from NNE

Wind:

NNE 5 mph, 7 km/h

Temperature: 52°F (11°C)

Dew Point: 32°F (0°C)

Humidity: 47%

Barometer: 30.56 in (1034.9 hPa)

Clouds: Clear

Visibility: 10 miles (16 km)


2020/09/21 00:51 KPVD 210051Z 03004KT 10SM CLR 11/00 A3056 RMK AO2 SLP349 T01060000

KCON - Concord, NH


Distance from station: NNW 54mi, 87km

Updated Sun Sep 20, 2020 8:51pm EDT (NOT Current)

Clear

Clear

Wind from calm

Wind:

Calm

Temperature: 46°F (8°C)

Dew Point: 34°F (1°C)

Humidity: 62%

Barometer: 30.57 in (1035.2 hPa)

Clouds: Clear

Visibility: 10 miles (16 km)


2020/09/21 00:51 KCON 210051Z AUTO 00000KT 10SM CLR 08/01 A3057 RMK AO2 SLP353 T00830006

KEWB - New Bedford, MA


Distance from station: SSE 54mi, 87km

Updated Sun Sep 20, 2020 8:53pm EDT (NOT Current)

Clear

Clear

Wind from calm

Wind:

Calm

Temperature: 39°F (4°C)

Dew Point: 34°F (1°C)

Humidity: 81%

Barometer: 30.54 in (1034.2 hPa)

Clouds: Clear

Visibility: 10 miles (16 km)


2020/09/21 00:53 KEWB 210053Z 00000KT 10SM CLR 04/01 A3054 RMK AO2 SLP340 T00440011

KORE - Orange, Massachusetts, USA


Distance from station: W 54mi, 87km

Updated Sun Sep 20, 2020 8:52pm EDT (NOT Current)

Clear

Clear

Wind from calm

Wind:

Calm

Temperature: 43°F (6°C)

Dew Point: 36°F (2°C)

Humidity: 76%

Barometer: 30.57 in (1035.2 hPa)

Clouds: Clear

Visibility: 10 miles (16 km)


2020/09/21 00:52 KORE 210052Z AUTO 00000KT 10SM CLR 06/02 A3057 RMK AO2 SLP356 T00560022

KCEF - Chicopee/Westover, Massachusetts, USA


Distance from station: WSW 67mi, 108km

Updated Sun Sep 20, 2020 8:56pm EDT (NOT Current)

Clear

Clear

Wind from calm

Wind:

Calm

Temperature: 43°F (6°C)

Dew Point: 37°F (3°C)

Humidity: 81%

Barometer: 30.53 in (1033.9 hPa)

Clouds: Clear

Visibility: 10 miles (16 km)


2020/09/21 00:56 KCEF 210056Z 00000KT 10SM CLR 06/03 A3053 RMK AO2A SLP346 T00610027

KMWN - Mount Washington, NH


Distance from station: N 126mi, 203km

Updated Sun Sep 20, 2020 8:59pm EDT

Few Clouds

Few Clouds

Wind from NE

Wind:

NE 9 mph, 15 km/h

Temperature: 27°F (-3°C)

Wind Chill: 18°F (-8°C)

Dew Point: 18°F (-8°C)

Humidity: 69%

Clouds: Few Clouds

Visibility: 110 miles (176 km)

Cloud details: Few Clouds 20000 ft


2020/09/21 00:59 KMWN 210059Z 05008KT 110SM FEW200 M03/M08 RMK